Time,TemperatureF,DewpointF,PressureIn,WindDirection,WindDirectionDegrees,WindSpeedMPH,WindSpeedGustMPH,Humidity,HourlyPrecipIn,Conditions,Clouds,dailyrainin,SoftwareType,DateUTC
2013-08-13 07:52:00,55.0,53.0,30.15,ENE,74,0.0,2.0,94,0.00,,,0.00,,2013-08-13 12:52:00,
2013-08-13 08:11:00,56.0,54.0,30.15,NE,43,1.0,3.0,92,0.00,,,0.00,,2013-08-13 13:11:00,
2013-08-13 08:22:00,57.0,54.0,30.16,NE,46,2.0,3.0,89,0.00,,,0.00,,2013-08-13 13:22:00,
2013-08-13 08:42:00,58.0,54.0,30.16,NE,37,1.0,3.0,87,0.00,,,0.00,,2013-08-13 13:42:00,
2013-08-13 08:52:00,59.0,54.0,30.17,ESE,120,1.0,3.0,83,0.00,,,0.00,,2013-08-13 13:52:00,
2013-08-13 09:11:00,61.0,55.0,30.17,East,98,1.0,3.0,81,0.00,,,0.00,,2013-08-13 14:11:00,
2013-08-13 09:22:00,62.0,55.0,30.18,NE,47,2.0,4.0,78,0.00,,,0.00,,2013-08-13 14:22:00,
2013-08-13 09:42:00,63.0,55.0,30.18,NE,39,1.0,2.0,76,0.00,,,0.00,,2013-08-13 14:42:00,
2013-08-13 09:52:00,64.0,55.0,30.18,NE,56,2.0,5.0,73,0.00,,,0.00,,2013-08-13 14:52:00,
2013-08-13 10:11:00,65.0,55.0,30.19,ENE,61,3.0,5.0,70,0.00,,,0.00,,2013-08-13 15:11:00,
2013-08-13 10:21:00,66.0,53.0,30.19,WNW,285,1.0,5.0,62,0.00,,,0.00,,2013-08-13 15:21:00,
2013-08-13 10:33:00,67.0,52.0,30.19,ENE,62,3.0,7.0,58,0.00,,,0.00,,2013-08-13 15:33:00,
2013-08-13 10:44:00,67.0,51.0,30.19,NE,40,5.0,8.0,57,0.00,,,0.00,,2013-08-13 15:44:00,
2013-08-13 10:54:00,67.0,52.0,30.19,ENE,62,3.0,7.0,58,0.00,,,0.00,,2013-08-13 15:54:00,
2013-08-13 11:03:00,67.0,52.0,30.19,ENE,62,3.0,7.0,58,0.00,,,0.00,,2013-08-13 16:03:00,
2013-08-13 11:13:00,67.0,52.0,30.19,ENE,62,3.0,7.0,58,0.00,,,0.00,,2013-08-13 16:13:00,
2013-08-13 11:23:00,67.0,52.0,30.19,ENE,62,3.0,7.0,58,0.00,,,0.00,,2013-08-13 16:23:00,
2013-08-13 18:13:00,74.0,47.0,30.13,NNW,344,6.0,8.0,39,0.00,,,0.00,,2013-08-13 23:13:00,
2013-08-13 18:26:00,73.0,47.0,30.13,ESE,103,4.0,7.0,40,0.00,,,0.00,,2013-08-13 23:26:00,
2013-08-13 18:46:00,73.0,47.0,30.13,NE,34,2.0,6.0,40,0.00,,,0.00,,2013-08-13 23:46:00,
2013-08-13 18:57:00,72.0,48.0,30.12,NNE,18,3.0,5.0,42,0.00,,,0.00,,2013-08-13 23:57:00,
2013-08-13 19:11:00,72.0,48.0,30.12,NE,44,3.0,5.0,43,0.00,,,0.00,,2013-08-14 00:11:00,
2013-08-13 19:22:00,71.0,49.0,30.12,NNE,15,3.0,4.0,45,0.00,,,0.00,,2013-08-14 00:22:00,
2013-08-13 19:42:00,71.0,49.0,30.12,NE,54,2.0,4.0,46,0.00,,,0.00,,2013-08-14 00:42:00,
2013-08-13 19:52:00,70.0,49.0,30.12,NNE,32,2.0,4.0,47,0.00,,,0.00,,2013-08-14 00:52:00,
2013-08-13 20:11:00,69.0,50.0,30.12,NNE,24,1.0,3.0,50,0.00,,,0.00,,2013-08-14 01:11:00,
2013-08-13 20:21:00,68.0,49.0,30.12,NNE,23,0.0,1.0,51,0.00,,,0.00,,2013-08-14 01:21:00,
2013-08-13 20:42:00,66.0,49.0,30.13,NNE,23,0.0,0.0,55,0.00,,,0.00,,2013-08-14 01:42:00,
2013-08-13 20:52:00,63.0,50.0,30.12,NNE,24,0.0,0.0,62,0.00,,,0.00,,2013-08-14 01:52:00,
2013-08-13 21:11:00,62.0,50.0,30.13,NNE,24,0.0,0.0,64,0.00,,,0.00,,2013-08-14 02:11:00,
2013-08-13 21:21:00,62.0,50.0,30.13,NNE,24,0.0,0.0,64,0.00,,,0.00,,2013-08-14 02:21:00,
2013-08-13 21:32:00,62.0,50.0,30.13,NNE,24,0.0,0.0,64,0.00,,,0.00,,2013-08-14 02:32:00,